Corinth, Mississippi
Current Conditions -  °F | °C
As of 10:15 PM on Wednesday 17 Dec 2014 (Local Time) from KCRX Reporting Station
Overcast Overcast  
Wind Chill: 36°   Ceiling: 9500
Heat Index: 39°   Visibility: 10mi
Dew Point: 32°   Wind: 5mph
Humidity: 75%   Direction: 30°NNE
Pressure: 30.23"   Gusts: NA
Location:  34.93°N, 88.53°W
Report Text: KCRX 180415Z AUTO 03004KT 10SM OVC095 04/00 A3023 RMK AO2
Loading
Personal Weather Stations






























Interactive Weather Map New forecast layout! Learn more

10-Day Weather Forecast

Advertisements
Track Severe Weather on mobile